ESMT

Halmstad Airport

Halmstad, Sweden
METAR ESMT 180850Z 21010KT 9999 BKN007 01/00 Q1022
Observed Flight Rules
Dec-18 @ 08:50 UTC (15 minutes ago) Instrument Flight Rules
Wind Visibility Clouds
210° at 10 knots 10,000+ meters
  • Broken at 700' AGL
Temperatures Readings
Current 1°C / 34°F
Dewpoint 0°C / 32°F
Humidity 93%
Altimeter 30.18" Hg
Pressure 1022 hPa
Elevation 30
METAR ESMT 180850Z 21010KT 9999 BKN007 01/00 Q1022
Observed Flight Rules
Dec-18 @ 08:50 UTC
(15 minutes ago)
IFR
Wind Visibility
210° at 10 knots 10,000+ meters
Clouds
  • Broken at 700' AGL
Temperature Dewpoint
1°C / 34°F 0°C / 32°F
Humidity Altimeter Pressure
93% 30.18" Hg 1022 hPa